Vizconde de Eza — EAXB — position and weather

sailwx.info

Track history (hours):
 
Tides and Currents Weather Stations Pressure Air Temp Water Temp Dewpoint Dewpoint Depression Visibility Wind Speed Wind Dir Waves Ship Positions

Oceanographic research ship Vizconde de Eza (Spain)

Detailed information on ship capabilities available from University of Delaware's Ocean Information Center.

Last reported at 2019-Oct-07 10:40 UTC. Time now 2019-Oct-14 10:20 UTC.
Position N 53°15' W 009°03'.

Length 53 m; draft 5.6 m.

Type: Other ship. MMSI: 224582000.

Date/timePositionNaut miles runAvg speedWind from/ knotsBaromVisibWave heightAir tempDewpointWater temp
2019-Oct-07 10:40N 53°15' W 009°03'5 1.6
2019-Oct-07 07:21N 53°12' W 009°10'13 6.3
2019-Oct-07 05:19N 53°03' W 009°25'5 9.2
2019-Oct-07 04:46N 52°60' W 009°31'2410.9
2019-Oct-07 02:32N 52°49' W 010°07'  
2019-Oct-04 19:38N 53°15' W 009°02'0 0.0
2019-Oct-03 06:24N 53°15' W 009°02'6 4.5
2019-Oct-03 05:07N 53°13' W 009°10'35 8.0
2019-Oct-03 00:44N 52°50' W 009°54'  
2019-Sep-27 23:00N 53°17' W 010°52'6 6.1
2019-Sep-27 21:58N 53°16' W 010°41'7 6.6
2019-Sep-27 20:50N 53°14' W 010°29'11 6.7
2019-Sep-27 19:12N 53°13' W 010°11'3 7.2
2019-Sep-27 18:47N 53°13' W 010°06'13 8.1
2019-Sep-27 17:13N 53°12' W 009°45'  
Track history (hours):
 
Tides and Currents Weather Stations Pressure Air Temp Water Temp Dewpoint Dewpoint Depression Visibility Wind Speed Wind Dir Waves Ship Positions

Oceanographic research ship Vizconde de Eza (Spain)

Detailed information on ship capabilities available from University of Delaware's Ocean Information Center.

Last reported at 2019-Oct-07 10:40 UTC. Time now 2019-Oct-14 10:20 UTC.
Position N 53°15' W 009°03'.

Length 53 m; draft 5.6 m.

Type: Other ship. MMSI: 224582000.

Date/timePositionNaut miles runAvg speedWind from/ knotsBaromVisibWave heightAir tempDewpointWater temp
2019-Oct-07 10:40N 53°15' W 009°03'5 1.6
2019-Oct-07 07:21N 53°12' W 009°10'13 6.3
2019-Oct-07 05:19N 53°03' W 009°25'5 9.2
2019-Oct-07 04:46N 52°60' W 009°31'2410.9
2019-Oct-07 02:32N 52°49' W 010°07'  
2019-Oct-04 19:38N 53°15' W 009°02'0 0.0
2019-Oct-03 06:24N 53°15' W 009°02'6 4.5
2019-Oct-03 05:07N 53°13' W 009°10'35 8.0
2019-Oct-03 00:44N 52°50' W 009°54'  
2019-Sep-27 23:00N 53°17' W 010°52'6 6.1
2019-Sep-27 21:58N 53°16' W 010°41'7 6.6
2019-Sep-27 20:50N 53°14' W 010°29'11 6.7
2019-Sep-27 19:12N 53°13' W 010°11'3 7.2
2019-Sep-27 18:47N 53°13' W 010°06'13 8.1
2019-Sep-27 17:13N 53°12' W 009°45'  

Dump ship's entire track history